createdAt,value
2023-02-19T00:01:10.160Z,24.83
2023-02-19T00:03:38.257Z,25.73
2023-02-19T00:06:07.008Z,25.90
2023-02-19T00:08:35.049Z,24.67
2023-02-19T00:11:07.381Z,22.07
2023-02-19T00:13:41.409Z,23.97
2023-02-19T00:16:16.845Z,22.50
2023-02-19T00:18:43.987Z,23.57
2023-02-19T00:21:10.899Z,22.50
2023-02-19T00:23:37.747Z,23.00
2023-02-19T00:26:17.560Z,23.90
2023-02-19T00:28:44.468Z,22.27
2023-02-19T00:31:21.485Z,24.37
2023-02-19T00:33:49.480Z,20.47
2023-02-19T00:36:16.723Z,20.50
2023-02-19T00:38:44.561Z,21.87
2023-02-19T00:41:21.134Z,20.80
2023-02-19T00:43:52.183Z,19.37
2023-02-19T00:46:21.475Z,23.87
2023-02-19T00:48:48.454Z,22.30
2023-02-19T00:51:15.205Z,27.13
2023-02-19T00:53:42.460Z,20.00
2023-02-19T00:56:09.204Z,21.47
2023-02-19T00:58:35.881Z,22.53
2023-02-19T01:01:02.913Z,17.27
2023-02-19T01:03:29.585Z,18.30
2023-02-19T01:05:56.055Z,18.03
2023-02-19T01:08:22.811Z,20.97
2023-02-19T01:10:49.394Z,15.87
2023-02-19T01:13:16.371Z,19.17
2023-02-19T01:15:42.936Z,17.23
2023-02-19T01:18:10.029Z,17.70
2023-02-19T01:20:40.025Z,19.00
2023-02-19T01:23:06.460Z,17.17
2023-02-19T01:25:32.902Z,15.80
2023-02-19T01:27:59.301Z,17.63
2023-02-19T01:30:25.801Z,18.47
2023-02-19T01:32:52.310Z,23.63
2023-02-19T01:35:18.829Z,21.30
2023-02-19T01:37:45.219Z,20.67
2023-02-19T01:40:11.649Z,23.27
2023-02-19T01:42:43.045Z,17.03
2023-02-19T01:45:24.850Z,17.10
2023-02-19T01:47:59.080Z,14.00
2023-02-19T01:50:28.770Z,16.53
2023-02-19T01:52:55.640Z,16.47
2023-02-19T01:55:23.170Z,14.07
2023-02-19T01:57:55.256Z,14.67
2023-02-19T02:00:24.300Z,13.03
2023-02-19T02:02:54.506Z,17.60
2023-02-19T02:05:52.611Z,15.27
2023-02-19T02:08:38.460Z,12.40
2023-02-19T02:11:08.585Z,10.07
2023-02-19T02:13:37.003Z,14.73
2023-02-19T02:16:25.680Z,17.87
2023-02-19T02:19:27.099Z,14.63
2023-02-19T02:22:06.813Z,12.20
2023-02-19T02:24:51.942Z,16.07
2023-02-19T02:27:21.019Z,12.47
2023-02-19T02:30:05.941Z,11.80
2023-02-19T02:32:53.395Z,12.00
2023-02-19T02:35:27.787Z,9.43
2023-02-19T02:38:00.620Z,11.47
2023-02-19T02:40:27.123Z,12.73
2023-02-19T02:42:58.074Z,14.03
2023-02-19T02:45:34.861Z,13.27
2023-02-19T02:48:20.136Z,7.17
2023-02-19T02:51:15.986Z,12.43
2023-02-19T02:54:15.457Z,18.57
2023-02-19T02:56:44.132Z,15.77
2023-02-19T02:59:13.441Z,15.17
2023-02-19T03:02:11.068Z,14.30
2023-02-19T03:05:06.609Z,14.70
2023-02-19T03:07:44.390Z,12.17
2023-02-19T03:10:15.462Z,15.13
2023-02-19T03:13:03.590Z,13.40
2023-02-19T03:15:56.124Z,12.10
2023-02-19T03:18:42.252Z,13.87
2023-02-19T03:21:10.142Z,13.90
2023-02-19T03:23:55.866Z,10.73
2023-02-19T03:26:24.381Z,14.00
2023-02-19T03:29:11.472Z,10.30
2023-02-19T03:31:41.270Z,13.07
2023-02-19T03:34:16.486Z,10.10
2023-02-19T03:37:02.223Z,10.73
2023-02-19T03:39:28.779Z,10.57
2023-02-19T03:41:55.133Z,8.93
2023-02-19T03:44:52.444Z,10.00
2023-02-19T03:47:25.184Z,9.83
2023-02-19T03:49:55.498Z,9.57
2023-02-19T03:52:27.360Z,9.23
2023-02-19T03:55:09.841Z,8.47
2023-02-19T03:58:14.860Z,12.67
2023-02-19T04:00:55.163Z,9.97
2023-02-19T04:03:31.414Z,6.97
2023-02-19T04:06:13.623Z,9.60
2023-02-19T04:08:44.137Z,7.47
2023-02-19T04:11:12.358Z,8.60
2023-02-19T04:13:45.890Z,7.30
2023-02-19T04:16:20.389Z,7.80
2023-02-19T04:18:52.930Z,8.77
2023-02-19T04:21:22.061Z,7.80
2023-02-19T04:23:49.333Z,7.17
2023-02-19T04:26:17.426Z,9.90
2023-02-19T04:28:44.214Z,13.90
2023-02-19T04:31:11.488Z,6.87
2023-02-19T04:33:38.497Z,11.63
2023-02-19T04:36:05.328Z,6.97
2023-02-19T04:38:31.753Z,6.57
2023-02-19T04:40:58.343Z,12.00
2023-02-19T04:43:24.821Z,8.00
2023-02-19T04:45:51.312Z,10.60
2023-02-19T04:48:17.780Z,7.67
2023-02-19T04:50:44.231Z,9.73
2023-02-19T04:53:10.650Z,12.17
2023-02-19T04:55:38.690Z,7.00
2023-02-19T04:58:05.206Z,7.87
2023-02-19T05:00:31.962Z,11.03
2023-02-19T05:02:58.411Z,10.13
2023-02-19T05:05:24.814Z,7.77
2023-02-19T05:07:51.230Z,10.17
2023-02-19T05:10:17.727Z,11.63
2023-02-19T05:12:44.273Z,9.13
2023-02-19T05:15:10.681Z,9.13
2023-02-19T05:17:37.860Z,8.27
2023-02-19T05:20:04.968Z,9.37
2023-02-19T05:22:31.419Z,10.17
2023-02-19T05:24:57.839Z,11.90
2023-02-19T05:27:24.297Z,10.60
2023-02-19T05:29:50.796Z,8.50
2023-02-19T05:32:17.498Z,6.67
2023-02-19T05:34:43.938Z,8.17
2023-02-19T05:37:10.458Z,7.67
2023-02-19T05:39:36.867Z,10.53
2023-02-19T05:42:03.414Z,8.47
2023-02-19T05:44:29.841Z,7.53
2023-02-19T05:46:56.234Z,9.67
2023-02-19T05:49:22.675Z,6.70
2023-02-19T05:51:52.469Z,8.63
2023-02-19T05:54:18.897Z,8.37
2023-02-19T05:56:45.410Z,6.87
2023-02-19T05:59:20.766Z,10.17
2023-02-19T06:01:49.021Z,9.73
2023-02-19T06:04:15.963Z,9.20
2023-02-19T06:06:42.704Z,6.77
2023-02-19T06:09:09.470Z,10.27
2023-02-19T06:11:36.612Z,8.73
2023-02-19T06:14:03.606Z,10.70
2023-02-19T06:16:32.143Z,8.40
2023-02-19T06:18:58.780Z,7.53
2023-02-19T06:21:25.226Z,9.30
2023-02-19T06:23:51.718Z,8.40
2023-02-19T06:26:20.729Z,10.53
2023-02-19T06:28:49.064Z,9.90
2023-02-19T06:31:16.356Z,8.50
2023-02-19T06:33:43.269Z,6.43
2023-02-19T06:36:18.391Z,7.00
2023-02-19T06:38:44.875Z,10.10
2023-02-19T06:41:13.364Z,10.17
2023-02-19T06:43:40.415Z,10.63
2023-02-19T06:46:07.781Z,8.43
2023-02-19T06:48:34.773Z,6.80
2023-02-19T06:51:01.332Z,7.30
2023-02-19T06:53:27.885Z,9.33
2023-02-19T06:56:02.605Z,11.53
2023-02-19T06:58:29.465Z,9.47
2023-02-19T07:00:56.346Z,6.07
2023-02-19T07:03:23.655Z,7.73
2023-02-19T07:05:50.386Z,10.57
2023-02-19T07:08:19.571Z,8.20
2023-02-19T07:10:46.057Z,9.40
2023-02-19T07:13:12.784Z,8.87
2023-02-19T07:15:39.269Z,6.83
2023-02-19T07:18:07.612Z,6.23
2023-02-19T07:20:34.082Z,6.67
2023-02-19T07:23:00.485Z,10.67
2023-02-19T07:25:26.896Z,9.50
2023-02-19T07:27:53.307Z,8.30
2023-02-19T07:30:19.926Z,9.23
2023-02-19T07:32:46.328Z,7.90
2023-02-19T07:35:12.745Z,11.77
2023-02-19T07:37:41.125Z,7.73
2023-02-19T07:40:07.909Z,9.53
2023-02-19T07:42:34.357Z,6.70
2023-02-19T07:45:00.859Z,9.00
2023-02-19T07:47:27.290Z,11.27
2023-02-19T07:49:53.674Z,7.37
2023-02-19T07:52:20.219Z,8.60
2023-02-19T07:54:46.655Z,8.13
2023-02-19T07:57:13.837Z,10.60
2023-02-19T07:59:40.476Z,10.27
2023-02-19T08:02:36.284Z,9.30
2023-02-19T08:05:03.534Z,12.30
2023-02-19T08:07:34.485Z,9.77
2023-02-19T08:10:20.130Z,11.20
2023-02-19T08:13:13.770Z,11.83
2023-02-19T08:15:40.220Z,9.03
2023-02-19T08:18:07.641Z,6.83
2023-02-19T08:20:34.084Z,8.80
2023-02-19T08:23:00.608Z,9.73
2023-02-19T08:25:27.260Z,10.63
2023-02-19T08:27:53.732Z,9.33
2023-02-19T08:30:20.302Z,8.27
2023-02-19T08:32:46.733Z,8.63
2023-02-19T08:35:13.212Z,6.97
2023-02-19T08:37:39.630Z,10.67
2023-02-19T08:40:06.112Z,6.13
2023-02-19T08:42:32.604Z,8.90
2023-02-19T08:44:59.094Z,7.00
2023-02-19T08:47:25.549Z,7.00
2023-02-19T08:49:51.972Z,7.77
2023-02-19T08:52:18.584Z,9.13
2023-02-19T08:54:45.373Z,6.37
2023-02-19T08:57:11.961Z,10.57
2023-02-19T08:59:38.396Z,7.43
2023-02-19T09:02:04.938Z,5.80
2023-02-19T09:04:31.594Z,7.40
2023-02-19T09:06:58.156Z,9.93
2023-02-19T09:09:24.562Z,7.90
2023-02-19T09:11:51.077Z,10.33
2023-02-19T09:14:17.465Z,9.27
2023-02-19T09:16:43.913Z,8.30
2023-02-19T09:19:10.304Z,8.80
2023-02-19T09:21:36.735Z,9.23
2023-02-19T09:24:03.374Z,8.90
2023-02-19T09:26:29.813Z,7.17
2023-02-19T09:28:56.423Z,6.10
2023-02-19T09:31:23.032Z,8.63
2023-02-19T09:33:49.578Z,8.90
2023-02-19T09:36:16.937Z,10.03
2023-02-19T09:38:43.380Z,7.53
2023-02-19T09:41:18.314Z,10.63
2023-02-19T09:43:45.148Z,7.53
2023-02-19T09:46:33.691Z,7.07
2023-02-19T09:49:08.033Z,8.00
2023-02-19T09:51:37.915Z,10.63
2023-02-19T09:54:07.755Z,6.63
2023-02-19T09:56:34.646Z,11.90
2023-02-19T09:59:01.672Z,6.50
2023-02-19T10:01:37.190Z,7.67
2023-02-19T10:04:03.984Z,10.17
2023-02-19T10:06:32.612Z,8.57
2023-02-19T10:09:23.683Z,7.53
2023-02-19T10:11:51.621Z,8.50
2023-02-19T10:14:39.568Z,6.87
2023-02-19T10:17:07.295Z,8.13
2023-02-19T10:19:35.469Z,9.33
2023-02-19T10:22:04.028Z,7.37
2023-02-19T10:24:30.974Z,10.33
2023-02-19T10:26:57.542Z,5.77
2023-02-19T10:29:24.885Z,6.70
2023-02-19T10:32:18.171Z,7.60
2023-02-19T10:34:44.737Z,6.67
2023-02-19T10:37:15.780Z,5.20
2023-02-19T10:39:43.539Z,7.93
2023-02-19T10:42:22.304Z,7.00
2023-02-19T10:44:54.270Z,7.57
2023-02-19T10:47:23.551Z,4.60
2023-02-19T10:49:51.826Z,3.47
2023-02-19T10:52:23.977Z,5.77
2023-02-19T10:54:57.854Z,5.70
2023-02-19T10:57:30.522Z,6.90
2023-02-19T11:00:03.960Z,5.60
2023-02-19T11:02:31.752Z,4.97
2023-02-19T11:05:16.626Z,4.13
2023-02-19T11:07:56.106Z,9.07
2023-02-19T11:10:29.916Z,5.73
2023-02-19T11:12:59.459Z,6.03
2023-02-19T11:15:32.334Z,5.03
2023-02-19T11:18:14.192Z,5.77
2023-02-19T11:20:54.517Z,5.17
2023-02-19T11:23:27.668Z,4.23
2023-02-19T11:25:57.376Z,8.20
2023-02-19T11:28:32.131Z,4.80
2023-02-19T11:31:19.828Z,6.67
2023-02-19T11:33:56.210Z,6.20
2023-02-19T11:36:35.764Z,6.33
2023-02-19T11:39:19.976Z,8.77
2023-02-19T11:41:59.752Z,5.77
2023-02-19T11:44:44.469Z,3.70
2023-02-19T11:47:37.190Z,5.63
2023-02-19T11:50:26.754Z,4.00
2023-02-19T11:53:14.739Z,4.60
2023-02-19T11:56:08.241Z,3.67
2023-02-19T11:59:00.848Z,5.83
2023-02-19T12:01:58.382Z,5.00
2023-02-19T12:05:12.859Z,4.50
2023-02-19T12:07:42.688Z,4.00
2023-02-19T12:10:28.509Z,3.60
2023-02-19T12:13:21.997Z,5.10
2023-02-19T12:16:15.236Z,3.50
2023-02-19T12:19:18.626Z,3.53
2023-02-19T12:22:08.247Z,3.47
2023-02-19T12:25:01.461Z,4.03
2023-02-19T12:27:40.040Z,4.37
2023-02-19T12:30:17.292Z,3.37
2023-02-19T12:33:15.407Z,2.40
2023-02-19T12:35:47.857Z,5.77
2023-02-19T12:38:41.522Z,9.17
2023-02-19T12:41:25.953Z,7.50
2023-02-19T12:44:04.481Z,3.97
2023-02-19T12:46:42.208Z,2.90
2023-02-19T12:49:33.240Z,3.37
2023-02-19T12:52:18.907Z,3.17
2023-02-19T12:54:48.336Z,3.67
2023-02-19T12:57:32.696Z,4.20
2023-02-19T13:00:16.296Z,3.27
2023-02-19T13:02:53.750Z,2.50
2023-02-19T13:05:38.227Z,3.67
2023-02-19T13:08:04.792Z,3.30
2023-02-19T13:10:41.321Z,3.83
2023-02-19T13:13:16.062Z,3.00
2023-02-19T13:15:48.493Z,5.17
2023-02-19T13:18:34.066Z,3.60
2023-02-19T13:21:02.019Z,3.90
2023-02-19T13:24:03.112Z,2.97
2023-02-19T13:26:50.956Z,3.83
2023-02-19T13:29:35.805Z,4.30
2023-02-19T13:32:27.611Z,2.80
2023-02-19T13:35:12.948Z,3.70
2023-02-19T13:37:39.670Z,3.67
2023-02-19T13:40:22.935Z,2.63
2023-02-19T13:42:58.798Z,3.17
2023-02-19T13:45:33.702Z,3.57
2023-02-19T13:48:12.540Z,2.70
2023-02-19T13:50:39.033Z,2.27
2023-02-19T13:53:43.208Z,5.33
2023-02-19T13:56:31.649Z,3.33
2023-02-19T13:59:24.900Z,4.37
2023-02-19T14:01:54.304Z,3.33
2023-02-19T14:04:23.538Z,4.73
2023-02-19T14:07:05.548Z,4.50
2023-02-19T14:09:39.911Z,4.53
2023-02-19T14:12:14.406Z,4.50
2023-02-19T14:14:45.852Z,4.37
2023-02-19T14:17:17.621Z,4.43
2023-02-19T14:19:46.423Z,4.00
2023-02-19T14:22:47.117Z,4.87
2023-02-19T14:25:22.632Z,3.40
2023-02-19T14:27:50.582Z,3.73
2023-02-19T14:30:17.540Z,5.33
2023-02-19T14:32:47.452Z,5.07
2023-02-19T14:35:22.453Z,4.60
2023-02-19T14:37:51.032Z,3.00
2023-02-19T14:40:31.012Z,4.87
2023-02-19T14:43:01.035Z,4.03
2023-02-19T14:45:29.514Z,3.57
2023-02-19T14:47:57.913Z,4.50
2023-02-19T14:50:31.393Z,3.27
2023-02-19T14:53:04.817Z,5.30
2023-02-19T14:55:38.626Z,3.37
2023-02-19T14:58:15.554Z,4.07
2023-02-19T15:00:43.143Z,3.47
2023-02-19T15:03:42.071Z,2.90
2023-02-19T15:06:14.429Z,4.03
2023-02-19T15:08:46.789Z,3.63
2023-02-19T15:11:19.157Z,4.13
2023-02-19T15:13:52.559Z,3.90
2023-02-19T15:16:21.294Z,3.97
2023-02-19T15:18:49.556Z,3.77
2023-02-19T15:21:24.547Z,5.80
2023-02-19T15:23:55.556Z,3.10
2023-02-19T15:26:35.014Z,4.23
2023-02-19T15:29:05.128Z,3.73
2023-02-19T15:31:31.740Z,4.40
2023-02-19T15:33:58.242Z,5.13
2023-02-19T15:36:31.518Z,4.97
2023-02-19T15:39:01.787Z,3.67
2023-02-19T15:41:33.505Z,4.10
2023-02-19T15:44:28.921Z,2.90
2023-02-19T15:46:57.218Z,6.53
2023-02-19T15:49:36.081Z,3.90
2023-02-19T15:52:10.909Z,3.57
2023-02-19T15:55:17.821Z,3.57
2023-02-19T15:57:50.611Z,3.23
2023-02-19T16:00:37.161Z,3.27
2023-02-19T16:03:05.612Z,5.47
2023-02-19T16:05:39.343Z,4.10
2023-02-19T16:08:19.384Z,4.43
2023-02-19T16:10:54.318Z,3.87
2023-02-19T16:13:24.179Z,4.33
2023-02-19T16:16:01.820Z,5.33
2023-02-19T16:18:28.529Z,6.03
2023-02-19T16:20:55.054Z,4.33
2023-02-19T16:23:24.892Z,4.63
2023-02-19T16:26:02.455Z,4.17
2023-02-19T16:28:35.159Z,4.80
2023-02-19T16:31:04.425Z,7.03
2023-02-19T16:33:36.896Z,4.70
2023-02-19T16:36:20.488Z,3.60
2023-02-19T16:39:09.151Z,4.03
2023-02-19T16:41:47.674Z,4.13
2023-02-19T16:44:27.463Z,4.33
2023-02-19T16:47:05.930Z,3.87
2023-02-19T16:49:32.519Z,4.00
2023-02-19T16:52:02.100Z,3.63
2023-02-19T16:54:29.729Z,4.23
2023-02-19T16:56:56.159Z,5.50
2023-02-19T16:59:22.672Z,4.80
2023-02-19T17:01:49.176Z,5.97
2023-02-19T17:04:15.973Z,4.50
2023-02-19T17:06:42.559Z,5.70
2023-02-19T17:09:09.721Z,4.33
2023-02-19T17:11:36.490Z,4.67
2023-02-19T17:14:03.266Z,4.37
2023-02-19T17:16:39.404Z,4.40
2023-02-19T17:19:12.239Z,4.80
2023-02-19T17:21:38.878Z,5.20
2023-02-19T17:24:05.583Z,5.17
2023-02-19T17:26:32.842Z,6.37
2023-02-19T17:29:00.812Z,5.20
2023-02-19T17:31:28.076Z,6.93
2023-02-19T17:33:54.797Z,5.63
2023-02-19T17:36:30.830Z,5.17
2023-02-19T17:39:01.966Z,4.97
2023-02-19T17:41:28.866Z,7.00
2023-02-19T17:43:55.578Z,6.40
2023-02-19T17:46:25.464Z,4.27
2023-02-19T17:48:52.927Z,5.83
2023-02-19T17:51:19.679Z,5.10
2023-02-19T17:53:48.738Z,4.43
2023-02-19T17:56:18.205Z,5.33
2023-02-19T17:58:44.821Z,5.00
2023-02-19T18:01:11.965Z,5.77
2023-02-19T18:03:38.727Z,4.83
2023-02-19T18:06:05.638Z,4.43
2023-02-19T18:08:32.187Z,5.03
2023-02-19T18:10:58.692Z,4.10
2023-02-19T18:13:25.294Z,3.87
2023-02-19T18:15:53.466Z,3.97
2023-02-19T18:18:20.685Z,4.87
2023-02-19T18:20:47.377Z,6.07
2023-02-19T18:23:13.843Z,6.20
2023-02-19T18:25:40.442Z,5.33
2023-02-19T18:28:06.932Z,4.47
2023-02-19T18:30:33.488Z,5.60
2023-02-19T18:33:00.155Z,4.50
2023-02-19T18:35:26.735Z,4.33
2023-02-19T18:37:54.559Z,3.07
2023-02-19T18:40:22.602Z,5.57
2023-02-19T18:42:49.521Z,8.17
2023-02-19T18:45:16.209Z,5.77
2023-02-19T18:47:42.826Z,3.93
2023-02-19T18:50:10.731Z,6.37
2023-02-19T18:52:37.180Z,4.10
2023-02-19T18:55:03.862Z,4.17
2023-02-19T18:57:30.356Z,5.90
2023-02-19T18:59:56.840Z,7.63
2023-02-19T19:02:23.407Z,5.53
2023-02-19T19:04:52.021Z,6.10
2023-02-19T19:07:19.673Z,7.47
2023-02-19T19:09:46.875Z,6.37
2023-02-19T19:12:13.876Z,7.50
2023-02-19T19:14:40.301Z,6.73
2023-02-19T19:17:06.908Z,7.17
2023-02-19T19:19:33.414Z,7.37
2023-02-19T19:21:59.936Z,7.60
2023-02-19T19:24:26.406Z,5.27
2023-02-19T19:26:53.190Z,7.67
2023-02-19T19:29:22.111Z,7.80
2023-02-19T19:31:49.180Z,4.93
2023-02-19T19:34:16.919Z,5.97
2023-02-19T19:36:44.068Z,5.50
2023-02-19T19:39:10.610Z,4.23
2023-02-19T19:41:37.164Z,7.93
2023-02-19T19:44:08.151Z,6.37
2023-02-19T19:46:34.701Z,6.87
2023-02-19T19:49:01.304Z,5.70
2023-02-19T19:51:35.172Z,5.50
2023-02-19T19:54:04.112Z,5.97
2023-02-19T19:56:31.081Z,5.10
2023-02-19T19:58:57.571Z,5.57
2023-02-19T20:01:24.147Z,4.20
2023-02-19T20:03:53.662Z,4.00
2023-02-19T20:06:28.462Z,6.10
2023-02-19T20:08:55.301Z,5.23
2023-02-19T20:11:21.947Z,5.73
2023-02-19T20:13:48.640Z,4.23
2023-02-19T20:16:15.271Z,5.57
2023-02-19T20:18:42.312Z,6.03
2023-02-19T20:21:10.513Z,6.37
2023-02-19T20:23:40.009Z,5.93
2023-02-19T20:26:07.102Z,6.97
2023-02-19T20:28:33.712Z,4.90
2023-02-19T20:31:00.454Z,4.73
2023-02-19T20:33:26.962Z,6.23
2023-02-19T20:35:53.439Z,6.77
2023-02-19T20:38:19.895Z,6.57
2023-02-19T20:40:46.401Z,7.13
2023-02-19T20:43:12.820Z,7.27
2023-02-19T20:45:41.018Z,8.17
2023-02-19T20:48:07.483Z,7.67
2023-02-19T20:50:33.952Z,6.10
2023-02-19T20:53:00.454Z,6.00
2023-02-19T20:55:27.043Z,5.90
2023-02-19T20:57:53.454Z,6.53
2023-02-19T21:00:20.512Z,6.70
2023-02-19T21:02:47.053Z,7.33
2023-02-19T21:05:13.626Z,5.20
2023-02-19T21:07:40.056Z,9.20
2023-02-19T21:10:07.078Z,8.10
2023-02-19T21:12:33.878Z,6.17
2023-02-19T21:15:00.463Z,5.67
2023-02-19T21:17:26.965Z,8.57
2023-02-19T21:19:53.375Z,7.43
2023-02-19T21:22:19.883Z,5.73
2023-02-19T21:24:49.564Z,6.37
2023-02-19T21:27:16.069Z,6.03
2023-02-19T21:29:42.488Z,8.90
2023-02-19T21:32:09.050Z,6.77
2023-02-19T21:34:35.535Z,5.07
2023-02-19T21:37:02.167Z,7.27
2023-02-19T21:39:30.557Z,4.57
2023-02-19T21:41:58.711Z,6.73
2023-02-19T21:44:25.245Z,6.33
2023-02-19T21:46:51.772Z,4.27
2023-02-19T21:49:18.310Z,6.13
2023-02-19T21:51:45.519Z,9.67
2023-02-19T21:54:17.949Z,5.03
2023-02-19T21:56:44.516Z,7.83
2023-02-19T21:59:11.124Z,7.70
2023-02-19T22:01:42.142Z,5.23
2023-02-19T22:04:10.905Z,5.53
2023-02-19T22:06:39.205Z,8.63
2023-02-19T22:09:06.106Z,7.20
2023-02-19T22:11:32.749Z,8.03
2023-02-19T22:13:59.944Z,5.50
2023-02-19T22:16:26.614Z,7.60
2023-02-19T22:18:55.967Z,5.37
2023-02-19T22:21:24.268Z,5.97
2023-02-19T22:23:52.671Z,6.27
2023-02-19T22:26:26.826Z,6.73
2023-02-19T22:28:54.112Z,9.03
2023-02-19T22:31:22.447Z,6.87
2023-02-19T22:33:48.973Z,7.27
2023-02-19T22:36:19.870Z,6.93
2023-02-19T22:38:47.332Z,8.13
2023-02-19T22:41:15.071Z,6.27
2023-02-19T22:43:41.725Z,7.23
2023-02-19T22:46:14.981Z,8.30
2023-02-19T22:48:41.718Z,6.07
2023-02-19T22:51:17.382Z,5.17
2023-02-19T22:53:44.060Z,5.40
2023-02-19T22:56:11.037Z,6.30
2023-02-19T22:58:37.883Z,6.60
2023-02-19T23:01:04.594Z,6.23
2023-02-19T23:03:31.012Z,5.87
2023-02-19T23:05:57.685Z,6.97
2023-02-19T23:08:24.171Z,6.43
2023-02-19T23:10:50.876Z,6.17
2023-02-19T23:13:17.392Z,7.93
2023-02-19T23:15:43.861Z,8.03
2023-02-19T23:18:10.273Z,5.73
2023-02-19T23:20:36.818Z,7.57
2023-02-19T23:23:03.257Z,7.87
2023-02-19T23:25:29.700Z,7.33
2023-02-19T23:27:56.104Z,8.53
2023-02-19T23:30:22.828Z,7.50
2023-02-19T23:32:49.241Z,7.40
2023-02-19T23:35:15.827Z,9.83
2023-02-19T23:37:42.377Z,7.30
2023-02-19T23:40:09.568Z,8.17
2023-02-19T23:42:37.383Z,8.80
2023-02-19T23:45:04.109Z,11.17
2023-02-19T23:47:30.814Z,10.47
2023-02-19T23:49:57.325Z,8.50
2023-02-19T23:52:23.756Z,11.87
2023-02-19T23:54:50.217Z,9.03
2023-02-19T23:57:16.705Z,8.93
2023-02-19T23:59:43.236Z,10.20
